Tue, 13 Apr 2021 08:20:04 UTC

Information for RPM dash-0.5.5.1-3.fc12.i686.rpm

ID1388440
Namedash
Version0.5.5.1
Release3.fc12
Epoch
Archi686
SummarySmall and fast POSIX-compliant shell
DescriptionDASH is a POSIX-compliant implementation of /bin/sh that aims to be as small as possible. It does this without sacrificing speed where possible. In fact, it is significantly faster than bash (the GNU Bourne-Again SHell) for most tasks.
Build Time2009-07-25 06:16:41 GMT
Size69,124
48d5a64447aa7508615abf5b6faad595
LicenseBSD
Buildrootdist-f12-build-517419-79907
Provides
dash = 0.5.5.1-3.fc12
dash(x86-32) = 0.5.5.1-3.fc12
Obsoletes No Obsoletes
Conflicts No Conflicts
Requires
libc.so.6
libc.so.6(GLIBC_2.0)
libc.so.6(GLIBC_2.1)
libc.so.6(GLIBC_2.1.1)
libc.so.6(GLIBC_2.11)
libc.so.6(GLIBC_2.2)
libc.so.6(GLIBC_2.3)
libc.so.6(GLIBC_2.3.4)
libc.so.6(GLIBC_2.4)
rpmlib(CompressedFileNames) <= 3.0.4-1
rpmlib(FileDigests) <= 4.6.0-1
rpmlib(PayloadFilesHavePrefix) <= 4.0-1
rpmlib(PayloadIsXz) <= 5.2-1
rtld(GNU_HASH)
Recommends No Recommends
Suggests No Suggests
Supplements No Supplements
Enhances No Enhances
Files
1 through 2 of 2
Name ascending sort Size
/bin/dash96,516
/usr/share/man/man1/dash.1.gz21,061
Component of
Page:
1 through 50 of 12902 >>>
Buildroot descending sort Created State
dist-f13-build-1087773-165717 2011-06-23 20:32:08 expired
dist-f13-build-1083759-164968 2011-06-20 10:50:58 expired
dist-f13-build-1082976-164825 2011-06-18 17:59:27 expired
dist-f13-build-1081214-164450 2011-06-17 01:20:43 expired
dist-f13-build-1079544-164124 2011-06-14 10:45:08 expired
dist-f13-build-1079268-164106 2011-06-13 22:11:22 expired
dist-f13-build-1079109-164085 2011-06-13 17:32:47 expired
dist-f13-build-1078743-163890 2011-06-12 22:15:44 expired
dist-f13-build-1078556-163890 2011-06-12 07:59:15 expired
dist-f13-build-1076742-163326 2011-06-08 16:06:12 expired
dist-f13-build-1076740-163326 2011-06-08 16:03:47 expired
dist-f13-build-1076546-163272 2011-06-08 12:54:23 expired
dist-f13-build-1076224-163216 2011-06-07 22:49:27 expired
dist-f13-build-1076218-163216 2011-06-07 22:40:54 expired
dist-f13-build-1076154-163216 2011-06-07 20:59:43 expired
dist-f13-build-1076031-163216 2011-06-07 19:03:31 expired
dist-f13-build-1076020-163216 2011-06-07 18:59:39 expired
dist-f13-build-1075971-163216 2011-06-07 17:32:13 expired
dist-f13-build-1074599-162986 2011-06-06 05:18:58 expired
dist-f13-build-1074560-162986 2011-06-06 02:42:33 expired
dist-f13-build-1074523-162986 2011-06-06 00:35:41 expired
dist-f13-build-1074429-162958 2011-06-05 16:21:29 expired
dist-f13-build-1074256-162808 2011-06-04 17:03:50 expired
dist-f13-build-1074244-162808 2011-06-04 15:59:40 expired
dist-f13-build-1074124-162808 2011-06-04 02:15:17 expired
dist-f13-build-1073434-162634 2011-06-02 19:52:17 expired
dist-f13-build-1073226-162595 2011-06-02 15:02:08 expired
dist-f13-build-1073156-162570 2011-06-02 13:52:01 expired
dist-f13-build-1072751-162526 2011-06-02 07:38:53 expired
dist-f13-build-1072544-162507 2011-06-02 00:26:53 expired
dist-f13-build-1072379-162466 2011-06-01 05:37:17 expired
dist-f13-build-1071212-162102 2011-05-29 12:22:51 expired
dist-f13-build-1071113-162067 2011-05-28 20:35:51 expired
dist-f13-build-1071043-161958 2011-05-28 14:59:20 expired
dist-f13-build-1071036-161958 2011-05-28 14:55:31 expired
dist-f13-build-1069131-161471 2011-05-24 16:17:59 expired
dist-f13-build-1069083-161471 2011-05-24 15:22:12 expired
dist-f13-build-1068867-161368 2011-05-24 06:57:11 expired
dist-f13-build-1068814-161368 2011-05-24 04:52:46 expired
dist-f13-build-1068798-161368 2011-05-24 02:29:54 expired
dist-f13-build-1068565-161327 2011-05-23 15:03:57 expired
dist-f13-build-1067986-161199 2011-05-22 12:38:11 expired
dist-f13-build-1067912-161110 2011-05-21 19:30:42 expired
dist-f13-build-1067897-161110 2011-05-21 19:09:02 expired
dist-f13-build-1067887-161110 2011-05-21 18:50:14 expired
dist-f13-build-1067377-160942 2011-05-20 12:33:29 expired
dist-f13-build-1067346-160942 2011-05-20 11:39:49 expired
dist-f13-build-1066755-160809 2011-05-19 13:47:17 expired
dist-f13-build-1066704-160809 2011-05-19 12:09:35 expired
dist-f13-build-1066679-160809 2011-05-19 10:46:39 expired